sensor_id;sensor_type;location;lat;lon;timestamp;pressure;altitude;pressure_sealevel;temperature;humidity
44926;BME280;30662;51.210;7.656;2023-01-15T00:00:20;150054.63;;;4.98;100.00
44926;BME280;30662;51.210;7.656;2023-01-15T00:02:46;150059.69;;;5.01;100.00
44926;BME280;30662;51.210;7.656;2023-01-15T00:05:12;150069.75;;;5.05;100.00
44926;BME280;30662;51.210;7.656;2023-01-15T00:07:38;150040.78;;;4.93;100.00
44926;BME280;30662;51.210;7.656;2023-01-15T00:10:05;150035.72;;;4.91;100.00
44926;BME280;30662;51.210;7.656;2023-01-15T00:12:31;150033.19;;;4.90;100.00
44926;BME280;30662;51.210;7.656;2023-01-15T00:14:57;150058.44;;;5.00;100.00
44926;BME280;30662;51.210;7.656;2023-01-15T00:17:23;150055.88;;;4.99;100.00
44926;BME280;30662;51.210;7.656;2023-01-15T00:19:48;150016.81;;;4.83;100.00
44926;BME280;30662;51.210;7.656;2023-01-15T00:22:14;150001.69;;;4.77;100.00
44926;BME280;30662;51.210;7.656;2023-01-15T00:24:40;149968.94;;;4.64;100.00
44926;BME280;30662;51.210;7.656;2023-01-15T00:27:24;149984.03;;;4.70;100.00
44926;BME280;30662;51.210;7.656;2023-01-15T00:30:10;149931.09;;;4.49;100.00
44926;BME280;30662;51.210;7.656;2023-01-15T00:32:38;149938.69;;;4.52;100.00
44926;BME280;30662;51.210;7.656;2023-01-15T00:35:04;149958.84;;;4.60;100.00
44926;BME280;30662;51.210;7.656;2023-01-15T00:37:30;149927.31;;;4.47;100.00
44926;BME280;30662;51.210;7.656;2023-01-15T00:39:56;149929.84;;;4.48;100.00
44926;BME280;30662;51.210;7.656;2023-01-15T00:42:22;149868.13;;;4.23;100.00
44926;BME280;30662;51.210;7.656;2023-01-15T00:44:49;149859.28;;;4.20;100.00
44926;BME280;30662;51.210;7.656;2023-01-15T00:47:15;149869.38;;;4.24;100.00
44926;BME280;30662;51.210;7.656;2023-01-15T00:49:41;149883.25;;;4.29;100.00
44926;BME280;30662;51.210;7.656;2023-01-15T00:52:08;149892.03;;;4.33;100.00
44926;BME280;30662;51.210;7.656;2023-01-15T00:54:34;149860.59;;;4.20;100.00
44926;BME280;30662;51.210;7.656;2023-01-15T00:57:00;149869.38;;;4.24;100.00
44926;BME280;30662;51.210;7.656;2023-01-15T00:59:26;149822.75;;;4.05;100.00
44926;BME280;30662;51.210;7.656;2023-01-15T01:01:52;149812.69;;;4.01;100.00
44926;BME280;30662;51.210;7.656;2023-01-15T01:04:18;149827.81;;;4.07;100.00
44926;BME280;30662;51.210;7.656;2023-01-15T01:06:44;149847.97;;;4.15;100.00
44926;BME280;30662;51.210;7.656;2023-01-15T01:09:14;149846.72;;;4.14;100.00
44926;BME280;30662;51.210;7.656;2023-01-15T01:11:40;149827.81;;;4.07;100.00
44926;BME280;30662;51.210;7.656;2023-01-15T01:14:06;149811.44;;;4.00;100.00
44926;BME280;30662;51.210;7.656;2023-01-15T01:16:34;149806.38;;;3.98;100.00
44926;BME280;30662;51.210;7.656;2023-01-15T01:19:13;149800.09;;;3.96;100.00
44926;BME280;30662;51.210;7.656;2023-01-15T01:21:41;149816.47;;;4.02;100.00
44926;BME280;30662;51.210;7.656;2023-01-15T01:24:10;149818.97;;;4.03;100.00
44926;BME280;30662;51.210;7.656;2023-01-15T01:26:36;149818.97;;;4.03;100.00
44926;BME280;30662;51.210;7.656;2023-01-15T01:29:02;149793.81;;;3.93;100.00
44926;BME280;30662;51.210;7.656;2023-01-15T01:31:28;149764.81;;;3.81;100.00
44926;BME280;30662;51.210;7.656;2023-01-15T01:33:56;149783.72;;;3.89;100.00
44926;BME280;30662;51.210;7.656;2023-01-15T01:36:29;149820.22;;;4.04;100.00
44926;BME280;30662;51.210;7.656;2023-01-15T01:38:55;149781.19;;;3.88;100.00
44926;BME280;30662;51.210;7.656;2023-01-15T01:41:21;149791.28;;;3.92;100.00
44926;BME280;30662;51.210;7.656;2023-01-15T01:44:00;149761.06;;;3.80;100.00
44926;BME280;30662;51.210;7.656;2023-01-15T01:46:29;149752.22;;;3.76;100.00
44926;BME280;30662;51.210;7.656;2023-01-15T01:51:28;149763.56;;;3.81;100.00
44926;BME280;30662;51.210;7.656;2023-01-15T01:53:57;149776.19;;;3.86;100.00
44926;BME280;30662;51.210;7.656;2023-01-15T01:56:23;149797.56;;;3.95;100.00
44926;BME280;30662;51.210;7.656;2023-01-15T01:58:51;149778.69;;;3.87;100.00
44926;BME280;30662;51.210;7.656;2023-01-15T02:01:21;149757.28;;;3.78;100.00
44926;BME280;30662;51.210;7.656;2023-01-15T02:03:49;149758.53;;;3.79;100.00
44926;BME280;30662;51.210;7.656;2023-01-15T02:06:15;149748.44;;;3.75;100.00
44926;BME280;30662;51.210;7.656;2023-01-15T02:08:41;149710.66;;;3.59;100.00
44926;BME280;30662;51.210;7.656;2023-01-15T02:11:12;149708.16;;;3.58;100.00
44926;BME280;30662;51.210;7.656;2023-01-15T02:13:42;149738.41;;;3.71;100.00
44926;BME280;30662;51.210;7.656;2023-01-15T02:16:18;149694.28;;;3.53;100.00
44926;BME280;30662;51.210;7.656;2023-01-15T02:18:55;149689.28;;;3.51;100.00
44926;BME280;30662;51.210;7.656;2023-01-15T02:21:45;149716.94;;;3.62;100.00
44926;BME280;30662;51.210;7.656;2023-01-15T02:24:29;149698.06;;;3.54;100.00
44926;BME280;30662;51.210;7.656;2023-01-15T02:27:18;149720.75;;;3.64;100.00
44926;BME280;30662;51.210;7.656;2023-01-15T02:30:03;149738.41;;;3.71;100.00
44926;BME280;30662;51.210;7.656;2023-01-15T02:32:35;149743.41;;;3.73;100.00
44926;BME280;30662;51.210;7.656;2023-01-15T02:35:13;149727.03;;;3.66;100.00
44926;BME280;30662;51.210;7.656;2023-01-15T02:37:45;149740.91;;;3.72;100.00
44926;BME280;30662;51.210;7.656;2023-01-15T02:40:13;149733.31;;;3.69;100.00
44926;BME280;30662;51.210;7.656;2023-01-15T02:42:41;149749.69;;;3.75;100.00
44926;BME280;30662;51.210;7.656;2023-01-15T02:45:09;149737.13;;;3.70;100.00
44926;BME280;30662;51.210;7.656;2023-01-15T02:47:39;149747.19;;;3.74;100.00
44926;BME280;30662;51.210;7.656;2023-01-15T02:50:12;149776.19;;;3.86;100.00
44926;BME280;30662;51.210;7.656;2023-01-15T02:52:48;149694.28;;;3.53;100.00
44926;BME280;30662;51.210;7.656;2023-01-15T02:55:21;149710.66;;;3.59;100.00
44926;BME280;30662;51.210;7.656;2023-01-15T02:57:49;149694.28;;;3.53;100.00
44926;BME280;30662;51.210;7.656;2023-01-15T03:00:20;149732.06;;;3.68;100.00
44926;BME280;30662;51.210;7.656;2023-01-15T03:02:53;149714.44;;;3.61;100.00
44926;BME280;30662;51.210;7.656;2023-01-15T03:05:56;149715.69;;;3.62;100.00
44926;BME280;30662;51.210;7.656;2023-01-15T03:08:25;149693.03;;;3.52;100.00
44926;BME280;30662;51.210;7.656;2023-01-15T03:10:58;149665.38;;;3.41;100.00
44926;BME280;30662;51.210;7.656;2023-01-15T03:22:04;149625.03;;;3.25;100.00
44926;BME280;30662;51.210;7.656;2023-01-15T03:24:38;149670.38;;;3.43;100.00
44926;BME280;30662;51.210;7.656;2023-01-15T03:27:05;149676.66;;;3.46;100.00
44926;BME280;30662;51.210;7.656;2023-01-15T03:29:35;149650.25;;;3.35;100.00
44926;BME280;30662;51.210;7.656;2023-01-15T03:32:02;149694.28;;;3.53;100.00
44926;BME280;30662;51.210;7.656;2023-01-15T03:34:58;149710.66;;;3.59;100.00
44926;BME280;30662;51.210;7.656;2023-01-15T03:37:25;149734.59;;;3.69;100.00
44926;BME280;30662;51.210;7.656;2023-01-15T03:39:53;149667.88;;;3.42;100.00
44926;BME280;30662;51.210;7.656;2023-01-15T03:42:39;149667.88;;;3.42;100.00
44926;BME280;30662;51.210;7.656;2023-01-15T03:45:22;149622.53;;;3.24;100.00
44926;BME280;30662;51.210;7.656;2023-01-15T03:50:31;149599.88;;;3.15;100.00
44926;BME280;30662;51.210;7.656;2023-01-15T03:53:22;149601.13;;;3.15;100.00
44926;BME280;30662;51.210;7.656;2023-01-15T03:56:02;149599.88;;;3.15;100.00
44926;BME280;30662;51.210;7.656;2023-01-15T03:58:49;149620.03;;;3.23;100.00
44926;BME280;30662;51.210;7.656;2023-01-15T04:01:20;149612.50;;;3.20;100.00
44926;BME280;30662;51.210;7.656;2023-01-15T04:03:49;149613.75;;;3.20;100.00
44926;BME280;30662;51.210;7.656;2023-01-15T04:06:16;149584.78;;;3.09;100.00
44926;BME280;30662;51.210;7.656;2023-01-15T04:08:43;149609.97;;;3.19;100.00
44926;BME280;30662;51.210;7.656;2023-01-15T04:11:10;149568.41;;;3.02;100.00
44926;BME280;30662;51.210;7.656;2023-01-15T04:13:36;149562.13;;;2.99;100.00
44926;BME280;30662;51.210;7.656;2023-01-15T04:16:02;149563.38;;;3.00;100.00
44926;BME280;30662;51.210;7.656;2023-01-15T04:18:28;149554.56;;;2.96;100.00
44926;BME280;30662;51.210;7.656;2023-01-15T04:20:54;149597.38;;;3.14;100.00
44926;BME280;30662;51.210;7.656;2023-01-15T04:23:21;149582.25;;;3.08;100.00
44926;BME280;30662;51.210;7.656;2023-01-15T04:25:46;149564.63;;;3.00;100.00
44926;BME280;30662;51.210;7.656;2023-01-15T04:28:12;149550.78;;;2.95;100.00
44926;BME280;30662;51.210;7.656;2023-01-15T04:30:38;149563.38;;;3.00;100.00
44926;BME280;30662;51.210;7.656;2023-01-15T04:33:04;149564.63;;;3.00;100.00
44926;BME280;30662;51.210;7.656;2023-01-15T04:35:30;149601.13;;;3.15;100.00
44926;BME280;30662;51.210;7.656;2023-01-15T04:37:57;149569.66;;;3.02;100.00
44926;BME280;30662;51.210;7.656;2023-01-15T04:40:24;149535.66;;;2.89;100.00
44926;BME280;30662;51.210;7.656;2023-01-15T04:43:10;149565.91;;;3.01;100.00
44926;BME280;30662;51.210;7.656;2023-01-15T04:45:55;149572.16;;;3.03;100.00
44926;BME280;30662;51.210;7.656;2023-01-15T04:48:21;149550.78;;;2.95;100.00
44926;BME280;30662;51.210;7.656;2023-01-15T04:50:47;149530.66;;;2.87;100.00
44926;BME280;30662;51.210;7.656;2023-01-15T04:53:13;149545.75;;;2.93;100.00
44926;BME280;30662;51.210;7.656;2023-01-15T04:55:39;149542.00;;;2.91;100.00
44926;BME280;30662;51.210;7.656;2023-01-15T04:58:05;149513.03;;;2.80;100.00
44926;BME280;30662;51.210;7.656;2023-01-15T05:00:32;149539.47;;;2.90;100.00
44926;BME280;30662;51.210;7.656;2023-01-15T05:02:57;149533.16;;;2.88;100.00
44926;BME280;30662;51.210;7.656;2023-01-15T05:05:23;149552.03;;;2.95;100.00
44926;BME280;30662;51.210;7.656;2023-01-15T05:07:49;149509.28;;;2.78;100.00
44926;BME280;30662;51.210;7.656;2023-01-15T05:10:15;149508.00;;;2.78;100.00
44926;BME280;30662;51.210;7.656;2023-01-15T05:12:41;149475.28;;;2.64;100.00
44926;BME280;30662;51.210;7.656;2023-01-15T05:15:07;149509.28;;;2.78;100.00
44926;BME280;30662;51.210;7.656;2023-01-15T05:17:33;149526.88;;;2.85;100.00
44926;BME280;30662;51.210;7.656;2023-01-15T05:19:59;149505.50;;;2.76;100.00
44926;BME280;30662;51.210;7.656;2023-01-15T05:22:25;149521.88;;;2.83;100.00
44926;BME280;30662;51.210;7.656;2023-01-15T05:24:50;149501.69;;;2.75;100.00
44926;BME280;30662;51.210;7.656;2023-01-15T05:27:16;149503.00;;;2.75;100.00
44926;BME280;30662;51.210;7.656;2023-01-15T05:29:42;149520.63;;;2.83;100.00
44926;BME280;30662;51.210;7.656;2023-01-15T05:32:08;149492.91;;;2.71;100.00
44926;BME280;30662;51.210;7.656;2023-01-15T05:34:35;149521.88;;;2.83;100.00
44926;BME280;30662;51.210;7.656;2023-01-15T05:37:01;149501.69;;;2.75;100.00
44926;BME280;30662;51.210;7.656;2023-01-15T05:39:27;149511.78;;;2.79;100.00
44926;BME280;30662;51.210;7.656;2023-01-15T05:41:53;149509.28;;;2.78;100.00
44926;BME280;30662;51.210;7.656;2023-01-15T05:44:21;149490.41;;;2.70;100.00
44926;BME280;30662;51.210;7.656;2023-01-15T05:46:49;149505.50;;;2.76;100.00
44926;BME280;30662;51.210;7.656;2023-01-15T05:49:20;149520.63;;;2.83;100.00
44926;BME280;30662;51.210;7.656;2023-01-15T05:51:47;149506.75;;;2.77;100.00
44926;BME280;30662;51.210;7.656;2023-01-15T05:54:16;149491.66;;;2.71;100.00
44926;BME280;30662;51.210;7.656;2023-01-15T05:56:43;149513.03;;;2.80;100.00
44926;BME280;30662;51.210;7.656;2023-01-15T05:59:10;149510.53;;;2.79;100.00
44926;BME280;30662;51.210;7.656;2023-01-15T06:01:37;149535.66;;;2.89;100.00
44926;BME280;30662;51.210;7.656;2023-01-15T06:04:04;149528.13;;;2.86;100.00
44926;BME280;30662;51.210;7.656;2023-01-15T06:06:31;149518.06;;;2.82;100.00
44926;BME280;30662;51.210;7.656;2023-01-15T06:08:58;149553.28;;;2.96;100.00
44926;BME280;30662;51.210;7.656;2023-01-15T06:11:24;149548.28;;;2.94;100.00
44926;BME280;30662;51.210;7.656;2023-01-15T06:13:50;149570.91;;;3.03;100.00
44926;BME280;30662;51.210;7.656;2023-01-15T06:16:17;149526.88;;;2.85;100.00
44926;BME280;30662;51.210;7.656;2023-01-15T06:18:44;149568.41;;;3.02;100.00
44926;BME280;30662;51.210;7.656;2023-01-15T06:21:11;149553.28;;;2.96;100.00
44926;BME280;30662;51.210;7.656;2023-01-15T06:23:38;149548.28;;;2.94;100.00
44926;BME280;30662;51.210;7.656;2023-01-15T06:26:07;149528.13;;;2.86;100.00
44926;BME280;30662;51.210;7.656;2023-01-15T06:28:33;149539.47;;;2.90;100.00
44926;BME280;30662;51.210;7.656;2023-01-15T06:30:59;149560.88;;;2.99;100.00
44926;BME280;30662;51.210;7.656;2023-01-15T06:33:28;149560.88;;;2.99;100.00
44926;BME280;30662;51.210;7.656;2023-01-15T06:36:04;149574.72;;;3.04;100.00
44926;BME280;30662;51.210;7.656;2023-01-15T06:38:30;149572.16;;;3.03;100.00
44926;BME280;30662;51.210;7.656;2023-01-15T06:41:03;149553.28;;;2.96;100.00
44926;BME280;30662;51.210;7.656;2023-01-15T06:43:49;149552.03;;;2.95;100.00
44926;BME280;30662;51.210;7.656;2023-01-15T06:46:34;149558.38;;;2.98;100.00
44926;BME280;30662;51.210;7.656;2023-01-15T06:49:18;149525.63;;;2.85;100.00
44926;BME280;30662;51.210;7.656;2023-01-15T06:51:44;149521.88;;;2.83;100.00
44926;BME280;30662;51.210;7.656;2023-01-15T06:54:10;149545.75;;;2.93;100.00
44926;BME280;30662;51.210;7.656;2023-01-15T06:56:35;149579.75;;;3.07;100.00
44926;BME280;30662;51.210;7.656;2023-01-15T06:59:01;149567.16;;;3.01;100.00
44926;BME280;30662;51.210;7.656;2023-01-15T07:01:27;149598.63;;;3.14;100.00
44926;BME280;30662;51.210;7.656;2023-01-15T07:03:55;149559.63;;;2.98;100.00
44926;BME280;30662;51.210;7.656;2023-01-15T07:06:21;149592.34;;;3.12;100.00
44926;BME280;30662;51.210;7.656;2023-01-15T07:08:47;149621.28;;;3.23;100.00
44926;BME280;30662;51.210;7.656;2023-01-15T07:11:14;149587.28;;;3.10;100.00
44926;BME280;30662;51.210;7.656;2023-01-15T07:13:39;149562.13;;;2.99;100.00
44926;BME280;30662;51.210;7.656;2023-01-15T07:16:05;149584.78;;;3.09;100.00
44926;BME280;30662;51.210;7.656;2023-01-15T07:18:53;149531.91;;;2.87;100.00
44926;BME280;30662;51.210;7.656;2023-01-15T07:21:20;149533.16;;;2.88;100.00
44926;BME280;30662;51.210;7.656;2023-01-15T07:23:45;149581.00;;;3.07;100.00
44926;BME280;30662;51.210;7.656;2023-01-15T07:26:11;149609.97;;;3.19;100.00
44926;BME280;30662;51.210;7.656;2023-01-15T07:28:37;149626.31;;;3.25;100.00
44926;BME280;30662;51.210;7.656;2023-01-15T07:31:03;149613.75;;;3.20;100.00
44926;BME280;30662;51.210;7.656;2023-01-15T07:33:29;149626.31;;;3.25;100.00
44926;BME280;30662;51.210;7.656;2023-01-15T07:35:55;149607.41;;;3.18;100.00
44926;BME280;30662;51.210;7.656;2023-01-15T07:38:21;149608.66;;;3.18;100.00
44926;BME280;30662;51.210;7.656;2023-01-15T07:40:48;149611.22;;;3.19;100.00
44926;BME280;30662;51.210;7.656;2023-01-15T07:43:34;149630.13;;;3.27;100.00
44926;BME280;30662;51.210;7.656;2023-01-15T07:46:18;149650.25;;;3.35;100.00
44926;BME280;30662;51.210;7.656;2023-01-15T07:49:07;149618.75;;;3.22;100.00
44926;BME280;30662;51.210;7.656;2023-01-15T07:51:52;149618.75;;;3.22;100.00
44926;BME280;30662;51.210;7.656;2023-01-15T07:54:17;149612.50;;;3.20;100.00
44926;BME280;30662;51.210;7.656;2023-01-15T07:56:43;149621.28;;;3.23;100.00
44926;BME280;30662;51.210;7.656;2023-01-15T07:59:09;149642.66;;;3.32;100.00
44926;BME280;30662;51.210;7.656;2023-01-15T08:01:35;149602.41;;;3.16;100.00
44926;BME280;30662;51.210;7.656;2023-01-15T08:04:01;149587.28;;;3.10;100.00
44926;BME280;30662;51.210;7.656;2023-01-15T08:06:27;149581.00;;;3.07;100.00
44926;BME280;30662;51.210;7.656;2023-01-15T08:08:53;149558.38;;;2.98;100.00
44926;BME280;30662;51.210;7.656;2023-01-15T08:11:19;149560.88;;;2.99;100.00
44926;BME280;30662;51.210;7.656;2023-01-15T08:14:03;149526.88;;;2.85;100.00
44926;BME280;30662;51.210;7.656;2023-01-15T08:16:47;149547.03;;;2.93;100.00
44926;BME280;30662;51.210;7.656;2023-01-15T08:19:13;149519.31;;;2.82;100.00
44926;BME280;30662;51.210;7.656;2023-01-15T08:21:39;149521.88;;;2.83;100.00
44926;BME280;30662;51.210;7.656;2023-01-15T08:24:05;149523.13;;;2.84;100.00
44926;BME280;30662;51.210;7.656;2023-01-15T08:26:31;149552.03;;;2.95;100.00
44926;BME280;30662;51.210;7.656;2023-01-15T08:28:57;149547.03;;;2.93;100.00
44926;BME280;30662;51.210;7.656;2023-01-15T08:31:24;149567.16;;;3.01;100.00
44926;BME280;30662;51.210;7.656;2023-01-15T08:33:50;149558.38;;;2.98;100.00
44926;BME280;30662;51.210;7.656;2023-01-15T08:36:16;149533.16;;;2.88;100.00
44926;BME280;30662;51.210;7.656;2023-01-15T08:38:43;149519.31;;;2.82;100.00
44926;BME280;30662;51.210;7.656;2023-01-15T08:41:09;149564.63;;;3.00;100.00
44926;BME280;30662;51.210;7.656;2023-01-15T08:43:35;149563.38;;;3.00;100.00
44926;BME280;30662;51.210;7.656;2023-01-15T08:46:03;149526.88;;;2.85;100.00
44926;BME280;30662;51.210;7.656;2023-01-15T08:48:31;149520.63;;;2.83;100.00
44926;BME280;30662;51.210;7.656;2023-01-15T08:50:57;149554.56;;;2.96;100.00
44926;BME280;30662;51.210;7.656;2023-01-15T08:53:23;149554.56;;;2.96;100.00
44926;BME280;30662;51.210;7.656;2023-01-15T08:55:49;149584.78;;;3.09;100.00
44926;BME280;30662;51.210;7.656;2023-01-15T08:58:16;149596.13;;;3.13;100.00
44926;BME280;30662;51.210;7.656;2023-01-15T09:00:42;149552.03;;;2.95;100.00
44926;BME280;30662;51.210;7.656;2023-01-15T09:03:08;149565.91;;;3.01;100.00
44926;BME280;30662;51.210;7.656;2023-01-15T09:05:35;149567.16;;;3.01;100.00
44926;BME280;30662;51.210;7.656;2023-01-15T09:08:03;149542.00;;;2.91;100.00
44926;BME280;30662;51.210;7.656;2023-01-15T09:10:30;149540.75;;;2.91;100.00
44926;BME280;30662;51.210;7.656;2023-01-15T09:13:00;149509.28;;;2.78;100.00
44926;BME280;30662;51.210;7.656;2023-01-15T09:15:31;149515.53;;;2.81;100.00
44926;BME280;30662;51.210;7.656;2023-01-15T09:17:58;149510.53;;;2.79;100.00
44926;BME280;30662;51.210;7.656;2023-01-15T09:20:24;149514.28;;;2.80;100.00
44926;BME280;30662;51.210;7.656;2023-01-15T09:22:50;149511.78;;;2.79;100.00
44926;BME280;30662;51.210;7.656;2023-01-15T09:25:17;149497.94;;;2.73;100.00
44926;BME280;30662;51.210;7.656;2023-01-15T09:27:44;149510.53;;;2.79;100.00
44926;BME280;30662;51.210;7.656;2023-01-15T09:30:19;149530.66;;;2.87;100.00
44926;BME280;30662;51.210;7.656;2023-01-15T09:32:46;149535.66;;;2.89;100.00
44926;BME280;30662;51.210;7.656;2023-01-15T09:35:12;149525.63;;;2.85;100.00
44926;BME280;30662;51.210;7.656;2023-01-15T09:37:38;149529.41;;;2.86;100.00
44926;BME280;30662;51.210;7.656;2023-01-15T09:40:05;149529.41;;;2.86;100.00
44926;BME280;30662;51.210;7.656;2023-01-15T09:42:52;149582.25;;;3.08;100.00
44926;BME280;30662;51.210;7.656;2023-01-15T09:45:45;149557.09;;;2.97;100.00
44926;BME280;30662;51.210;7.656;2023-01-15T09:48:23;149579.75;;;3.07;100.00
44926;BME280;30662;51.210;7.656;2023-01-15T09:54:04;149597.38;;;3.14;100.00
44926;BME280;30662;51.210;7.656;2023-01-15T09:56:36;149545.75;;;2.93;100.00
44926;BME280;30662;51.210;7.656;2023-01-15T09:59:15;149577.25;;;3.06;100.00
44926;BME280;30662;51.210;7.656;2023-01-15T10:01:44;149569.66;;;3.02;100.00
44926;BME280;30662;51.210;7.656;2023-01-15T10:04:31;149575.97;;;3.05;100.00
44926;BME280;30662;51.210;7.656;2023-01-15T10:09:34;149607.41;;;3.18;100.00
44926;BME280;30662;51.210;7.656;2023-01-15T10:12:29;149596.13;;;3.13;100.00
44926;BME280;30662;51.210;7.656;2023-01-15T10:17:46;149609.97;;;3.19;100.00
44926;BME280;30662;51.210;7.656;2023-01-15T10:31:18;149670.38;;;3.43;100.00
44926;BME280;30662;51.210;7.656;2023-01-15T10:33:59;149793.81;;;3.93;100.00
44926;BME280;30662;51.210;7.656;2023-01-15T10:36:59;149763.56;;;3.81;100.00
44926;BME280;30662;51.210;7.656;2023-01-15T10:45:02;150011.78;;;4.81;100.00
44926;BME280;30662;51.210;7.656;2023-01-15T10:47:34;149951.31;;;4.57;100.00
44926;BME280;30662;51.210;7.656;2023-01-15T10:50:18;149758.53;;;3.79;100.00
44926;BME280;30662;51.210;7.656;2023-01-15T10:53:14;149875.66;;;4.26;100.00
44926;BME280;30662;51.210;7.656;2023-01-15T10:55:47;149883.25;;;4.29;100.00
44926;BME280;30662;51.210;7.656;2023-01-15T11:01:05;149817.72;;;4.03;100.00
44926;BME280;30662;51.210;7.656;2023-01-15T11:03:41;149783.72;;;3.89;100.00
44926;BME280;30662;51.210;7.656;2023-01-15T11:06:13;149738.41;;;3.71;100.00
44926;BME280;30662;51.210;7.656;2023-01-15T11:08:51;149729.56;;;3.67;100.00
44926;BME280;30662;51.210;7.656;2023-01-15T11:11:45;149766.06;;;3.82;100.00
44926;BME280;30662;51.210;7.656;2023-01-15T11:14:39;149763.56;;;3.81;100.00
44926;BME280;30662;51.210;7.656;2023-01-15T11:17:35;149739.66;;;3.71;100.00
44926;BME280;30662;51.210;7.656;2023-01-15T11:20:28;149738.41;;;3.71;100.00
44926;BME280;30662;51.210;7.656;2023-01-15T11:22:57;149738.41;;;3.71;100.00
44926;BME280;30662;51.210;7.656;2023-01-15T11:25:31;149737.13;;;3.70;100.00
44926;BME280;30662;51.210;7.656;2023-01-15T11:28:05;149711.94;;;3.60;100.00
44926;BME280;30662;51.210;7.656;2023-01-15T11:30:36;149759.78;;;3.79;100.00
44926;BME280;30662;51.210;7.656;2023-01-15T11:33:04;149759.78;;;3.79;100.00
44926;BME280;30662;51.210;7.656;2023-01-15T11:35:33;149747.19;;;3.74;100.00
44926;BME280;30662;51.210;7.656;2023-01-15T11:38:09;149734.59;;;3.69;100.00
44926;BME280;30662;51.210;7.656;2023-01-15T11:40:37;149708.16;;;3.58;100.00
44926;BME280;30662;51.210;7.656;2023-01-15T11:43:18;149757.28;;;3.78;100.00
44926;BME280;30662;51.210;7.656;2023-01-15T11:46:03;149739.66;;;3.71;100.00
44926;BME280;30662;51.210;7.656;2023-01-15T11:48:47;149764.81;;;3.81;100.00
44926;BME280;30662;51.210;7.656;2023-01-15T11:51:41;149771.16;;;3.84;100.00
44926;BME280;30662;51.210;7.656;2023-01-15T11:54:11;149766.06;;;3.82;100.00
44926;BME280;30662;51.210;7.656;2023-01-15T11:56:41;149728.31;;;3.67;100.00
44926;BME280;30662;51.210;7.656;2023-01-15T11:59:16;149729.56;;;3.67;100.00
44926;BME280;30662;51.210;7.656;2023-01-15T12:02:33;149732.06;;;3.68;100.00
44926;BME280;30662;51.210;7.656;2023-01-15T12:04:44;149744.69;;;3.73;100.00
44926;BME280;30662;51.210;7.656;2023-01-15T12:07:14;149729.56;;;3.67;100.00
44926;BME280;30662;51.210;7.656;2023-01-15T12:10:02;149738.41;;;3.71;100.00
44926;BME280;30662;51.210;7.656;2023-01-15T12:12:44;149743.41;;;3.73;100.00
44926;BME280;30662;51.210;7.656;2023-01-15T12:18:20;149737.13;;;3.70;100.00
44926;BME280;30662;51.210;7.656;2023-01-15T12:21:14;149745.94;;;3.74;100.00
44926;BME280;30662;51.210;7.656;2023-01-15T12:23:56;149730.81;;;3.68;100.00
44926;BME280;30662;51.210;7.656;2023-01-15T12:26:38;149732.06;;;3.68;100.00
44926;BME280;30662;51.210;7.656;2023-01-15T12:32:15;149749.69;;;3.75;100.00
44926;BME280;30662;51.210;7.656;2023-01-15T12:34:54;149688.00;;;3.50;100.00
44926;BME280;30662;51.210;7.656;2023-01-15T12:37:25;149686.75;;;3.50;100.00
44926;BME280;30662;51.210;7.656;2023-01-15T12:40:46;149716.94;;;3.62;100.00
44926;BME280;30662;51.210;7.656;2023-01-15T12:43:14;149769.84;;;3.83;100.00
44926;BME280;30662;51.210;7.656;2023-01-15T12:46:01;149740.91;;;3.72;100.00
44926;BME280;30662;51.210;7.656;2023-01-15T12:51:04;149734.59;;;3.69;100.00
44926;BME280;30662;51.210;7.656;2023-01-15T12:58:45;149684.25;;;3.49;100.00
44926;BME280;30662;51.210;7.656;2023-01-15T13:03:48;149660.28;;;3.39;100.00
44926;BME280;30662;51.210;7.656;2023-01-15T13:06:16;149655.28;;;3.37;100.00
44926;BME280;30662;51.210;7.656;2023-01-15T13:09:08;149689.28;;;3.51;100.00
44926;BME280;30662;51.210;7.656;2023-01-15T13:11:39;149690.53;;;3.51;100.00
44926;BME280;30662;51.210;7.656;2023-01-15T13:14:15;149680.44;;;3.47;100.00
44926;BME280;30662;51.210;7.656;2023-01-15T13:20:30;149691.78;;;3.52;100.00
44926;BME280;30662;51.210;7.656;2023-01-15T13:29:17;149700.63;;;3.55;100.00
44926;BME280;30662;51.210;7.656;2023-01-15T13:34:41;149701.88;;;3.56;100.00
44926;BME280;30662;51.210;7.656;2023-01-15T13:40:12;149747.19;;;3.74;100.00
44926;BME280;30662;51.210;7.656;2023-01-15T13:42:46;149711.94;;;3.60;100.00
44926;BME280;30662;51.210;7.656;2023-01-15T13:47:45;149743.41;;;3.73;100.00
44926;BME280;30662;51.210;7.656;2023-01-15T13:50:15;149739.66;;;3.71;100.00
44926;BME280;30662;51.210;7.656;2023-01-15T13:52:43;149743.41;;;3.73;100.00
44926;BME280;30662;51.210;7.656;2023-01-15T13:57:44;149705.66;;;3.57;100.00
44926;BME280;30662;51.210;7.656;2023-01-15T14:00:30;149725.78;;;3.66;100.00
44926;BME280;30662;51.210;7.656;2023-01-15T14:03:01;149725.78;;;3.66;100.00
44926;BME280;30662;51.210;7.656;2023-01-15T14:05:32;149728.31;;;3.67;100.00
44926;BME280;30662;51.210;7.656;2023-01-15T14:08:00;149742.16;;;3.72;100.00
44926;BME280;30662;51.210;7.656;2023-01-15T14:13:57;149713.19;;;3.60;100.00
44926;BME280;30662;51.210;7.656;2023-01-15T14:16:16;149745.94;;;3.74;100.00
44926;BME280;30662;51.210;7.656;2023-01-15T14:27:31;149754.78;;;3.77;100.00
44926;BME280;30662;51.210;7.656;2023-01-15T14:33:09;149739.66;;;3.71;100.00
44926;BME280;30662;51.210;7.656;2023-01-15T14:35:42;149739.66;;;3.71;100.00
44926;BME280;30662;51.210;7.656;2023-01-15T14:38:14;149774.91;;;3.85;100.00
44926;BME280;30662;51.210;7.656;2023-01-15T14:40:55;149763.56;;;3.81;100.00
44926;BME280;30662;51.210;7.656;2023-01-15T14:43:26;149710.66;;;3.59;100.00
44926;BME280;30662;51.210;7.656;2023-01-15T14:45:53;149715.69;;;3.62;100.00